createdAt,value
2023-03-22T00:01:37.143Z,10.70
2023-03-22T00:04:34.598Z,10.70
2023-03-22T00:07:32.785Z,10.70
2023-03-22T00:10:30.239Z,10.66
2023-03-22T00:13:27.994Z,10.70
2023-03-22T00:16:25.809Z,10.70
2023-03-22T00:19:23.360Z,10.70
2023-03-22T00:22:21.199Z,10.70
2023-03-22T00:25:18.641Z,10.68
2023-03-22T00:28:16.734Z,10.62
2023-03-22T00:31:14.237Z,10.60
2023-03-22T00:34:11.971Z,10.60
2023-03-22T00:37:09.743Z,10.60
2023-03-22T00:40:08.966Z,10.60
2023-03-22T00:43:06.713Z,10.60
2023-03-22T00:46:04.221Z,10.60
2023-03-22T00:49:01.927Z,10.60
2023-03-22T00:51:59.446Z,10.60
2023-03-22T00:54:57.258Z,10.60
2023-03-22T00:57:54.723Z,10.60
2023-03-22T01:00:52.536Z,10.60
2023-03-22T01:03:51.078Z,10.60
2023-03-22T01:06:48.597Z,10.60
2023-03-22T01:09:46.400Z,10.60
2023-03-22T01:12:43.871Z,10.60
2023-03-22T01:15:41.696Z,10.60
2023-03-22T01:18:39.150Z,10.60
2023-03-22T01:21:36.867Z,10.60
2023-03-22T01:24:34.627Z,10.60
2023-03-22T01:27:32.098Z,10.60
2023-03-22T01:30:30.026Z,10.60
2023-03-22T01:33:27.544Z,10.60
2023-03-22T01:36:25.281Z,10.60
2023-03-22T01:39:23.073Z,10.60
2023-03-22T01:42:22.411Z,10.60
2023-03-22T01:45:20.244Z,10.64
2023-03-22T01:48:17.806Z,10.70
2023-03-22T01:51:15.612Z,10.70
2023-03-22T01:54:13.428Z,10.70
2023-03-22T01:57:10.930Z,10.68
2023-03-22T02:00:10.709Z,10.70
2023-03-22T02:03:08.284Z,10.62
2023-03-22T02:06:05.950Z,10.62
2023-03-22T02:09:03.892Z,10.60
2023-03-22T02:12:01.657Z,10.62
2023-03-22T02:14:59.304Z,10.62
2023-03-22T02:17:59.720Z,10.60
2023-03-22T02:20:57.719Z,10.60
2023-03-22T02:23:55.234Z,10.60
2023-03-22T02:26:53.877Z,10.60
2023-03-22T02:29:52.702Z,10.62
2023-03-22T02:32:50.378Z,10.60
2023-03-22T02:35:47.949Z,10.60
2023-03-22T02:38:46.188Z,10.60
2023-03-22T02:41:43.937Z,10.60
2023-03-22T02:44:41.399Z,10.60
2023-03-22T02:47:39.972Z,10.60
2023-03-22T02:50:37.763Z,10.60
2023-03-22T02:53:35.923Z,10.60
2023-03-22T02:56:33.381Z,10.60
2023-03-22T02:59:31.158Z,10.60
2023-03-22T03:02:28.998Z,10.60
2023-03-22T03:05:26.508Z,10.60
2023-03-22T03:08:24.130Z,10.50
2023-03-22T03:11:21.582Z,10.50
2023-03-22T03:14:19.277Z,10.50
2023-03-22T03:17:16.703Z,10.50
2023-03-22T03:20:14.331Z,10.50
2023-03-22T03:23:14.025Z,10.52
2023-03-22T03:26:11.471Z,10.50
2023-03-22T03:29:09.253Z,10.60
2023-03-22T03:32:06.753Z,10.60
2023-03-22T03:35:05.290Z,10.60
2023-03-22T03:38:02.719Z,10.70
2023-03-22T03:41:00.404Z,10.70
2023-03-22T03:43:58.796Z,10.80
2023-03-22T03:46:56.372Z,10.80
2023-03-22T03:49:54.141Z,10.82
2023-03-22T03:52:51.609Z,10.90
2023-03-22T03:55:49.233Z,10.90
2023-03-22T03:58:46.692Z,10.92
2023-03-22T04:01:50.495Z,11.00
2023-03-22T04:04:48.268Z,11.00
2023-03-22T04:07:46.081Z,11.00
2023-03-22T04:10:44.350Z,11.00
2023-03-22T04:13:41.804Z,11.10
2023-03-22T04:16:39.681Z,11.10
2023-03-22T04:19:37.165Z,11.10
2023-03-22T04:22:35.509Z,11.08
2023-03-22T04:25:34.019Z,11.10
2023-03-22T04:28:34.318Z,11.10
2023-03-22T04:31:32.123Z,11.10
2023-03-22T04:34:29.598Z,11.10
2023-03-22T04:37:28.240Z,11.10
2023-03-22T04:40:26.563Z,11.10
2023-03-22T04:43:24.270Z,11.10
2023-03-22T04:46:22.486Z,11.10
2023-03-22T04:49:20.331Z,11.10
2023-03-22T04:52:18.045Z,11.00
2023-03-22T04:55:15.493Z,11.00
2023-03-22T04:58:13.207Z,11.00
2023-03-22T05:01:10.714Z,11.00
2023-03-22T05:04:08.445Z,10.92
2023-03-22T05:07:06.230Z,10.90
2023-03-22T05:10:04.075Z,10.90
2023-03-22T05:13:01.747Z,10.84
2023-03-22T05:15:59.876Z,10.80
2023-03-22T05:18:57.505Z,10.80
2023-03-22T05:21:58.381Z,10.80
2023-03-22T05:24:56.413Z,10.72
2023-03-22T05:27:54.384Z,10.78
2023-03-22T05:30:53.840Z,10.70
2023-03-22T05:33:52.967Z,10.70
2023-03-22T05:36:51.597Z,10.78
2023-03-22T05:39:49.337Z,10.78
2023-03-22T05:42:47.024Z,10.80
2023-03-22T05:45:46.100Z,10.80
2023-03-22T05:48:43.702Z,10.80
2023-03-22T05:51:42.710Z,10.80
2023-03-22T05:54:40.826Z,10.90
2023-03-22T05:57:38.552Z,10.90
2023-03-22T06:00:36.140Z,11.00
2023-03-22T06:03:33.619Z,11.10
2023-03-22T06:06:31.409Z,11.18
2023-03-22T06:09:29.244Z,11.30
2023-03-22T06:12:28.872Z,11.40
2023-03-22T06:15:27.778Z,11.40
2023-03-22T06:18:25.656Z,11.50
2023-03-22T06:21:23.415Z,11.52
2023-03-22T06:24:20.852Z,11.60
2023-03-22T06:27:19.452Z,11.70
2023-03-22T06:30:17.211Z,11.80
2023-03-22T06:33:14.672Z,11.90
2023-03-22T06:36:12.907Z,12.00
2023-03-22T06:39:10.417Z,12.10
2023-03-22T06:42:08.073Z,12.20
2023-03-22T06:45:05.765Z,12.26
2023-03-22T06:48:03.426Z,12.30
2023-03-22T06:51:01.271Z,12.40
2023-03-22T06:53:58.743Z,12.50
2023-03-22T06:56:56.585Z,12.60
2023-03-22T06:59:54.154Z,12.70
2023-03-22T07:02:52.842Z,12.80
2023-03-22T07:05:50.503Z,12.90
2023-03-22T07:08:50.727Z,13.00
2023-03-22T07:11:49.008Z,13.10
2023-03-22T07:14:46.880Z,13.22
2023-03-22T07:17:44.328Z,13.40
2023-03-22T07:20:42.902Z,13.54
2023-03-22T07:23:41.673Z,13.80
2023-03-22T07:26:39.131Z,14.00
2023-03-22T07:29:36.851Z,14.30
2023-03-22T07:32:34.389Z,14.50
2023-03-22T07:35:32.200Z,15.56
2023-03-22T07:38:29.701Z,17.12
2023-03-22T07:41:29.031Z,19.12
2023-03-22T07:44:26.857Z,19.90
2023-03-22T07:47:39.615Z,20.40
2023-03-22T07:50:38.898Z,21.60
2023-03-22T07:53:36.750Z,22.70
2023-03-22T07:56:34.487Z,22.20
2023-03-22T07:59:32.176Z,21.48
2023-03-22T08:02:30.159Z,20.90
2023-03-22T08:05:27.825Z,21.20
2023-03-22T08:08:26.573Z,21.10
2023-03-22T08:11:24.240Z,21.46
2023-03-22T08:14:27.466Z,22.40
2023-03-22T08:17:33.483Z,22.94
2023-03-22T08:20:30.933Z,23.58
2023-03-22T08:23:40.519Z,25.56
2023-03-22T08:26:39.536Z,27.40
2023-03-22T08:29:37.666Z,27.70
2023-03-22T08:32:35.151Z,29.84
2023-03-22T08:35:33.001Z,31.12
2023-03-22T08:38:31.154Z,32.52
2023-03-22T08:41:28.588Z,34.32
2023-03-22T08:44:26.366Z,36.08
2023-03-22T08:47:23.821Z,36.96
2023-03-22T08:50:21.491Z,38.00
2023-03-22T08:53:19.383Z,38.96
2023-03-22T08:56:17.229Z,39.78
2023-03-22T08:59:14.708Z,40.46
2023-03-22T09:02:12.487Z,41.20
2023-03-22T09:05:10.353Z,41.76
2023-03-22T09:08:07.886Z,41.86
2023-03-22T09:11:05.512Z,42.06
2023-03-22T09:14:03.020Z,42.40
2023-03-22T09:17:00.660Z,42.60
2023-03-22T09:20:11.631Z,43.00
2023-03-22T09:23:11.293Z,43.30
2023-03-22T09:26:09.061Z,43.14
2023-03-22T09:29:06.533Z,41.42
2023-03-22T09:32:04.226Z,39.76
2023-03-22T09:35:01.811Z,39.30
2023-03-22T09:38:02.697Z,39.74
2023-03-22T09:41:02.358Z,39.70
2023-03-22T09:43:59.979Z,40.46
2023-03-22T09:47:00.389Z,38.66
2023-03-22T09:49:57.862Z,36.54
2023-03-22T09:52:55.635Z,34.20
2023-03-22T09:55:53.163Z,33.38
2023-03-22T09:58:50.860Z,32.70
2023-03-22T10:01:48.511Z,33.14
2023-03-22T10:04:46.311Z,33.22
2023-03-22T10:07:43.958Z,33.12
2023-03-22T10:10:43.198Z,33.24
2023-03-22T10:13:41.046Z,33.58
2023-03-22T10:16:38.463Z,33.56
2023-03-22T10:19:36.551Z,32.66
2023-03-22T10:22:34.014Z,33.92
2023-03-22T10:25:31.776Z,35.20
2023-03-22T10:28:29.222Z,36.64
2023-03-22T10:31:26.981Z,36.52
2023-03-22T10:34:24.770Z,36.06
2023-03-22T10:37:22.282Z,36.44
2023-03-22T10:40:20.054Z,37.56
2023-03-22T10:43:17.537Z,37.94
2023-03-22T10:46:15.285Z,38.52
2023-03-22T10:49:13.100Z,38.80
2023-03-22T10:52:10.576Z,38.70
2023-03-22T10:55:08.300Z,39.14
2023-03-22T10:58:06.620Z,39.60
2023-03-22T11:01:05.020Z,39.90
2023-03-22T11:04:02.600Z,39.80
2023-03-22T11:07:00.331Z,40.08
2023-03-22T11:09:57.805Z,40.10
2023-03-22T11:12:55.467Z,39.80
2023-03-22T11:15:53.203Z,39.50
2023-03-22T11:18:50.802Z,39.86
2023-03-22T11:21:48.500Z,40.00
2023-03-22T11:24:45.973Z,40.20
2023-03-22T11:27:43.606Z,39.80
2023-03-22T11:30:42.036Z,39.84
2023-03-22T11:33:40.020Z,40.26
2023-03-22T11:36:37.778Z,40.50
2023-03-22T11:39:35.251Z,40.70
2023-03-22T11:42:32.905Z,40.34
2023-03-22T11:45:30.370Z,39.80
2023-03-22T11:48:28.651Z,39.82
2023-03-22T11:51:26.971Z,38.30
2023-03-22T11:54:24.432Z,36.94
2023-03-22T11:57:22.254Z,36.42
2023-03-22T12:00:20.657Z,36.68
2023-03-22T12:03:18.764Z,37.00
2023-03-22T12:06:16.413Z,37.78
2023-03-22T12:09:14.111Z,38.54
2023-03-22T12:12:11.813Z,39.18
2023-03-22T12:15:09.305Z,39.50
2023-03-22T12:18:08.109Z,39.22
2023-03-22T12:21:06.587Z,39.04
2023-03-22T12:24:04.421Z,39.10
2023-03-22T12:27:01.934Z,39.60
2023-03-22T12:29:59.665Z,39.48
2023-03-22T12:32:58.179Z,37.52
2023-03-22T12:35:55.774Z,36.00
2023-03-22T12:38:53.526Z,34.34
2023-03-22T12:41:51.149Z,33.16
2023-03-22T12:45:04.143Z,31.80
2023-03-22T12:48:02.941Z,30.62
2023-03-22T12:51:00.839Z,29.66
2023-03-22T12:53:58.456Z,28.82
2023-03-22T12:56:55.944Z,28.08
2023-03-22T12:59:53.605Z,27.50
2023-03-22T13:02:51.145Z,27.00
2023-03-22T13:05:48.891Z,26.96
2023-03-22T13:08:46.515Z,27.10
2023-03-22T13:11:43.973Z,27.16
2023-03-22T13:14:41.802Z,27.18
2023-03-22T13:17:39.334Z,26.90
2023-03-22T13:20:39.374Z,26.50
2023-03-22T13:23:37.716Z,26.10
2023-03-22T13:26:35.208Z,25.78
2023-03-22T13:29:33.010Z,25.60
2023-03-22T13:32:30.529Z,25.40
2023-03-22T13:35:29.081Z,25.10
2023-03-22T13:38:26.692Z,24.90
2023-03-22T13:41:24.388Z,25.10
2023-03-22T13:44:21.992Z,25.10
2023-03-22T13:47:19.640Z,25.00
2023-03-22T13:50:17.257Z,24.88
2023-03-22T13:53:15.048Z,24.60
2023-03-22T13:56:12.573Z,24.44
2023-03-22T13:59:10.383Z,24.30
2023-03-22T14:02:08.780Z,24.08
2023-03-22T14:05:06.282Z,24.00
2023-03-22T14:08:04.721Z,23.90
2023-03-22T14:11:03.232Z,23.70
2023-03-22T14:14:02.445Z,23.66
2023-03-22T14:16:59.955Z,23.50
2023-03-22T14:19:58.662Z,23.40
